Time;durP1;ratioP1;P1;durP2;ratioP2;P2;SDS_P1;SDS_P2;PMS_P1;PMS_P2;Temp;Humidity;BMP_temperature;BMP_pressure;BME280_temperature;BME280_humidity;BME280_pressure;Samples;Min_cycle;Max_cycle;Signal;HPM_P1;HPM_P2
2021/11/22 00:02:15;;;;;;;;;;;2.80;99.90;;;;;;5054258;28;19995;-76
2021/11/22 00:04:40;;;;;;;;;;;2.80;99.90;;;;;;5054403;28;20257;-76
2021/11/22 00:07:06;;;;;;;;;;;2.90;99.90;;;;;;5054328;28;19949;-76
2021/11/22 00:09:33;;;;;;;;;;;2.90;99.90;;;;;;5054085;28;19917;-76
2021/11/22 00:11:59;;;;;;;;;;;2.90;99.90;;;;;;5053849;28;19909;-76
2021/11/22 00:14:24;;;;;;;;;;;2.90;99.90;;;;;;5061712;28;20012;-75
2021/11/22 00:16:51;;;;;;;;;;;2.90;99.90;;;;;;5067520;28;20437;-75
2021/11/22 00:19:16;;;;;;;;;;;2.90;99.90;;;;;;5062118;28;19962;-76
2021/11/22 00:21:42;;;;;;;;;;;3.00;99.90;;;;;;5063333;28;19908;-76
2021/11/22 00:24:07;;;;;;;;;;;2.90;99.90;;;;;;5055693;28;20024;-76
2021/11/22 00:26:33;;;;;;;;;;;2.80;99.90;;;;;;5053823;28;19930;-76
2021/11/22 00:28:59;;;;;;;;;;;2.80;99.90;;;;;;5053973;28;20281;-76
2021/11/22 00:31:24;;;;;;;;;;;2.90;99.90;;;;;;5053378;28;19908;-75
2021/11/22 00:33:51;;;;;;;;;;;2.90;99.90;;;;;;5053746;28;19924;-75
2021/11/22 00:36:17;;;;;;;;;;;2.90;99.90;;;;;;5053800;28;20453;-76
2021/11/22 00:38:42;;;;;;;;;;;3.00;99.90;;;;;;5053857;28;20022;-75
2021/11/22 00:41:08;;;;;;;;;;;3.00;99.90;;;;;;5053108;28;19915;-75
2021/11/22 00:43:33;;;;;;;;;;;2.90;99.90;;;;;;5053606;28;19944;-77
2021/11/22 00:45:59;;;;;;;;;;;2.90;99.90;;;;;;5053557;28;20354;-76
2021/11/22 00:48:25;;;;;;;;;;;2.90;99.90;;;;;;5053573;28;19912;-76
2021/11/22 00:50:51;;;;;;;;;;;2.90;99.90;;;;;;5053421;28;20399;-76
2021/11/22 00:53:17;;;;;;;;;;;2.90;99.90;;;;;;5061853;28;20419;-76
2021/11/22 00:55:43;;;;;;;;;;;2.90;99.90;;;;;;5056431;28;19909;-75
2021/11/22 00:58:08;;;;;;;;;;;2.90;99.90;;;;;;5053268;28;19912;-76
2021/11/22 01:00:35;;;;;;;;;;;2.90;99.90;;;;;;5052779;28;20286;-75
2021/11/22 01:03:00;;;;;;;;;;;2.80;99.90;;;;;;5053218;28;19917;-76
2021/11/22 01:05:26;;;;;;;;;;;2.90;99.90;;;;;;5053219;28;19938;-74
2021/11/22 01:07:52;;;;;;;;;;;2.80;99.90;;;;;;5053242;28;20295;-76
2021/11/22 01:10:18;;;;;;;;;;;2.80;99.90;;;;;;5052530;28;19916;-76
2021/11/22 01:12:44;;;;;;;;;;;2.80;99.90;;;;;;5053048;28;19913;-76
2021/11/22 01:15:11;;;;;;;;;;;2.90;99.90;;;;;;5052396;28;20022;-76
2021/11/22 01:17:37;;;;;;;;;;;2.90;99.90;;;;;;5052954;28;20396;-75
2021/11/22 01:20:04;;;;;;;;;;;2.90;99.90;;;;;;5052599;28;19955;-75
2021/11/22 01:22:30;;;;;;;;;;;2.90;99.90;;;;;;5058638;28;19909;-76
2021/11/22 01:24:56;;;;;;;;;;;2.90;99.90;;;;;;5063881;28;19915;-76
2021/11/22 01:27:22;;;;;;;;;;;2.90;99.90;;;;;;5052659;28;19909;-76
2021/11/22 01:29:47;;;;;;;;;;;2.90;99.90;;;;;;5052431;28;20282;-76
2021/11/22 01:32:13;;;;;;;;;;;2.90;99.90;;;;;;5052630;28;19912;-76
2021/11/22 01:34:39;;;;;;;;;;;2.90;99.90;;;;;;5052897;28;20288;-76
2021/11/22 01:37:04;;;;;;;;;;;2.90;99.90;;;;;;5052675;28;19909;-76
2021/11/22 01:39:30;;;;;;;;;;;2.90;99.90;;;;;;5052329;28;19916;-76
2021/11/22 01:41:55;;;;;;;;;;;2.90;99.90;;;;;;5052020;28;19912;-76
2021/11/22 01:44:21;;;;;;;;;;;2.90;99.90;;;;;;5052272;28;19909;-76
2021/11/22 01:46:48;;;;;;;;;;;2.90;99.90;;;;;;5052445;28;20000;-76
2021/11/22 01:49:15;;;;;;;;;;;2.90;99.90;;;;;;5052435;28;19931;-76
2021/11/22 01:51:40;;;;;;;;;;;2.90;99.90;;;;;;5061384;28;20395;-76
2021/11/22 01:54:06;;;;;;;;;;;2.90;99.90;;;;;;5054634;28;19913;-76
2021/11/22 01:56:32;;;;;;;;;;;2.90;99.90;;;;;;5052178;28;19955;-76
2021/11/22 01:58:57;;;;;;;;;;;2.90;99.90;;;;;;5052188;28;20388;-75
2021/11/22 02:01:23;;;;;;;;;;;3.00;99.90;;;;;;5051724;28;20000;-76
2021/11/22 02:03:48;;;;;;;;;;;2.90;99.90;;;;;;5052143;28;19961;-76
2021/11/22 02:06:14;;;;;;;;;;;2.90;99.90;;;;;;5069770;28;19945;-75
2021/11/22 02:08:40;;;;;;;;;;;2.90;99.90;;;;;;5071065;28;20292;-75
2021/11/22 02:11:05;;;;;;;;;;;2.90;99.90;;;;;;5070554;28;20317;-76
2021/11/22 02:13:31;;;;;;;;;;;2.90;99.90;;;;;;5070953;28;19951;-76
2021/11/22 02:15:57;;;;;;;;;;;2.90;99.90;;;;;;5070999;28;19908;-76
2021/11/22 02:18:23;;;;;;;;;;;2.90;99.90;;;;;;5071168;28;19948;-76
2021/11/22 02:20:48;;;;;;;;;;;2.90;99.90;;;;;;5063002;28;20030;-75
2021/11/22 02:23:14;;;;;;;;;;;2.90;99.90;;;;;;5062339;28;19909;-76
2021/11/22 02:25:40;;;;;;;;;;;2.90;99.90;;;;;;5054722;28;19939;-76
2021/11/22 02:28:06;;;;;;;;;;;2.90;99.90;;;;;;5050883;28;19919;-76
2021/11/22 02:30:34;;;;;;;;;;;2.90;99.90;;;;;;5051257;28;19913;-76
2021/11/22 02:33:03;;;;;;;;;;;2.90;99.90;;;;;;5051645;28;19913;-76
2021/11/22 02:35:30;;;;;;;;;;;3.00;99.90;;;;;;5051562;28;19937;-76
2021/11/22 02:37:55;;;;;;;;;;;3.00;99.90;;;;;;5051520;28;19913;-76
2021/11/22 02:40:21;;;;;;;;;;;3.00;99.90;;;;;;5051138;28;19919;-76
2021/11/22 02:42:47;;;;;;;;;;;3.00;99.90;;;;;;5051570;28;20009;-75
2021/11/22 02:45:15;;;;;;;;;;;3.00;99.90;;;;;;5051792;28;19915;-75
2021/11/22 02:47:42;;;;;;;;;;;3.10;99.90;;;;;;5051537;28;19981;-76
2021/11/22 02:50:11;;;;;;;;;;;3.00;99.90;;;;;;5051416;28;19915;-76
2021/11/22 02:52:37;;;;;;;;;;;3.00;99.90;;;;;;5056285;28;20882;-76
2021/11/22 02:55:03;;;;;;;;;;;3.00;99.90;;;;;;5057009;28;19934;-76
2021/11/22 02:57:29;;;;;;;;;;;3.00;99.90;;;;;;5051113;28;19955;-75
2021/11/22 02:59:55;;;;;;;;;;;3.00;99.90;;;;;;5051277;28;20339;-76
2021/11/22 03:02:20;;;;;;;;;;;3.10;99.90;;;;;;5051239;28;20389;-76
2021/11/22 03:04:46;;;;;;;;;;;3.00;99.90;;;;;;5051384;28;19916;-76
2021/11/22 03:07:12;;;;;;;;;;;3.00;99.90;;;;;;5051228;28;19919;-76
2021/11/22 03:09:38;;;;;;;;;;;3.00;99.90;;;;;;5050890;28;20296;-75
2021/11/22 03:12:05;;;;;;;;;;;3.10;99.90;;;;;;5051059;28;19909;-74
2021/11/22 03:14:31;;;;;;;;;;;3.00;99.90;;;;;;5051030;28;19923;-76
2021/11/22 03:16:56;;;;;;;;;;;3.00;99.90;;;;;;5051289;28;20367;-76
2021/11/22 03:19:22;;;;;;;;;;;3.00;99.90;;;;;;5051523;28;20283;-75
2021/11/22 03:21:48;;;;;;;;;;;3.00;99.90;;;;;;5060961;28;19927;-75
2021/11/22 03:24:14;;;;;;;;;;;3.00;99.90;;;;;;5053589;28;19913;-76
2021/11/22 03:26:40;;;;;;;;;;;3.00;99.90;;;;;;5070333;28;20086;-76
2021/11/22 03:29:06;;;;;;;;;;;3.00;99.90;;;;;;5064329;28;19916;-76
2021/11/22 03:31:32;;;;;;;;;;;3.00;99.90;;;;;;5050532;28;20381;-76
2021/11/22 03:33:58;;;;;;;;;;;3.00;99.90;;;;;;5050953;28;20365;-76
2021/11/22 03:36:24;;;;;;;;;;;3.00;99.90;;;;;;5049690;28;19916;-75
2021/11/22 03:38:50;;;;;;;;;;;3.00;99.90;;;;;;5052540;28;19909;-76
2021/11/22 03:41:18;;;;;;;;;;;3.00;99.90;;;;;;5052961;28;19999;-76
2021/11/22 03:43:47;;;;;;;;;;;3.00;99.90;;;;;;5054645;28;19909;-76
2021/11/22 03:46:14;;;;;;;;;;;3.00;99.90;;;;;;5054751;28;19908;-76
2021/11/22 03:48:39;;;;;;;;;;;3.00;99.90;;;;;;5054768;28;19962;-76
2021/11/22 03:51:05;;;;;;;;;;;3.10;99.90;;;;;;5056486;28;19916;-76
2021/11/22 03:53:31;;;;;;;;;;;3.10;99.90;;;;;;5067651;28;19917;-75
2021/11/22 03:55:56;;;;;;;;;;;3.10;99.90;;;;;;5056103;28;19945;-76
2021/11/22 03:58:22;;;;;;;;;;;3.10;99.90;;;;;;5054481;28;20308;-76
2021/11/22 04:00:47;;;;;;;;;;;3.10;99.90;;;;;;5053909;28;19961;-76
2021/11/22 04:03:13;;;;;;;;;;;3.10;99.90;;;;;;5054654;28;19912;-76
2021/11/22 04:05:38;;;;;;;;;;;3.10;99.90;;;;;;5053995;28;19928;-76
2021/11/22 04:08:04;;;;;;;;;;;2.90;99.90;;;;;;5054166;28;19908;-76
2021/11/22 04:10:30;;;;;;;;;;;2.90;99.90;;;;;;5053320;28;20377;-76
2021/11/22 04:12:55;;;;;;;;;;;2.80;99.90;;;;;;5054160;28;19916;-76
2021/11/22 04:15:21;;;;;;;;;;;2.80;99.90;;;;;;5053895;28;19963;-76
2021/11/22 04:17:46;;;;;;;;;;;2.80;99.90;;;;;;5053798;28;19912;-76
2021/11/22 04:20:12;;;;;;;;;;;2.80;99.90;;;;;;5053440;28;19909;-76
2021/11/22 04:22:38;;;;;;;;;;;2.80;99.90;;;;;;5058719;28;20023;-76
2021/11/22 04:25:05;;;;;;;;;;;2.80;99.90;;;;;;5064852;28;20021;-76
2021/11/22 04:27:30;;;;;;;;;;;2.80;99.90;;;;;;5056674;28;19913;-76
2021/11/22 04:29:56;;;;;;;;;;;2.80;99.90;;;;;;5052188;28;19915;-76
2021/11/22 04:32:21;;;;;;;;;;;2.80;99.90;;;;;;5053750;28;19908;-75
2021/11/22 04:34:47;;;;;;;;;;;2.80;99.90;;;;;;5053625;28;20413;-76
2021/11/22 04:37:12;;;;;;;;;;;3.00;99.90;;;;;;5053968;28;19913;-74
2021/11/22 04:39:38;;;;;;;;;;;2.90;99.90;;;;;;5053266;28;19957;-74
2021/11/22 04:42:03;;;;;;;;;;;2.80;99.90;;;;;;5053471;28;19916;-76
2021/11/22 04:44:29;;;;;;;;;;;2.80;99.90;;;;;;5053604;28;19909;-76
2021/11/22 04:46:54;;;;;;;;;;;2.80;99.90;;;;;;5053427;28;19908;-76
2021/11/22 04:49:20;;;;;;;;;;;2.80;99.90;;;;;;5053019;28;20021;-75
2021/11/22 04:51:45;;;;;;;;;;;2.90;99.90;;;;;;5052541;28;19909;-76
2021/11/22 04:54:11;;;;;;;;;;;2.80;99.90;;;;;;5054790;28;20385;-76
2021/11/22 04:56:36;;;;;;;;;;;2.80;99.90;;;;;;5060996;28;19917;-76
2021/11/22 04:59:02;;;;;;;;;;;2.80;99.90;;;;;;5054456;28;19952;-76
2021/11/22 05:01:27;;;;;;;;;;;2.80;99.90;;;;;;5052848;28;19908;-76
2021/11/22 05:03:53;;;;;;;;;;;2.90;99.90;;;;;;5053005;28;20324;-76
2021/11/22 05:06:18;;;;;;;;;;;2.90;99.90;;;;;;5053201;28;19909;-74
2021/11/22 05:08:44;;;;;;;;;;;2.80;99.90;;;;;;5053142;28;19915;-76
2021/11/22 05:11:09;;;;;;;;;;;2.90;99.90;;;;;;5052446;28;20401;-76
2021/11/22 05:13:35;;;;;;;;;;;2.90;99.90;;;;;;5052892;28;19920;-76
2021/11/22 05:16:00;;;;;;;;;;;3.00;99.90;;;;;;5052944;28;19935;-76
2021/11/22 05:18:26;;;;;;;;;;;2.90;99.90;;;;;;5052848;28;19909;-76
2021/11/22 05:20:51;;;;;;;;;;;3.00;99.90;;;;;;5052631;28;19912;-76
2021/11/22 05:23:17;;;;;;;;;;;2.90;99.90;;;;;;5055432;28;19913;-74
2021/11/22 05:25:42;;;;;;;;;;;2.90;99.90;;;;;;5060461;28;19909;-76
2021/11/22 05:28:08;;;;;;;;;;;3.00;99.90;;;;;;5053006;28;20007;-76
2021/11/22 05:30:34;;;;;;;;;;;3.10;99.90;;;;;;5052566;28;20361;-76
2021/11/22 05:33:01;;;;;;;;;;;3.10;99.90;;;;;;5053017;28;19952;-76
2021/11/22 05:35:26;;;;;;;;;;;3.10;99.90;;;;;;5053022;28;19909;-76
2021/11/22 05:37:52;;;;;;;;;;;3.10;99.90;;;;;;5052695;28;19916;-76
2021/11/22 05:40:18;;;;;;;;;;;3.10;99.90;;;;;;5050879;28;19931;-76
2021/11/22 05:42:43;;;;;;;;;;;3.10;99.90;;;;;;5052852;28;19999;-75
2021/11/22 05:45:09;;;;;;;;;;;3.10;99.90;;;;;;5051816;28;19916;-76
2021/11/22 05:47:35;;;;;;;;;;;3.00;99.90;;;;;;5053003;28;19944;-76
2021/11/22 05:50:07;;;;;;;;;;;3.00;99.90;;;;;;5052558;28;20365;-76
2021/11/22 05:52:34;;;;;;;;;;;3.00;99.90;;;;;;5051163;28;19908;-76
2021/11/22 05:55:00;;;;;;;;;;;2.90;99.90;;;;;;5063428;28;19999;-75
2021/11/22 05:57:26;;;;;;;;;;;2.90;99.90;;;;;;5055640;28;19924;-75
2021/11/22 05:59:51;;;;;;;;;;;2.90;99.90;;;;;;5051100;28;19916;-76
2021/11/22 06:02:17;;;;;;;;;;;3.00;99.90;;;;;;5052414;28;20411;-76
2021/11/22 06:04:42;;;;;;;;;;;3.10;99.90;;;;;;5052593;28;19999;-76
2021/11/22 06:07:08;;;;;;;;;;;3.10;99.90;;;;;;5052733;28;19909;-75
2021/11/22 06:09:34;;;;;;;;;;;3.20;99.90;;;;;;5071328;28;19923;-75
2021/11/22 06:11:59;;;;;;;;;;;3.10;99.90;;;;;;5071023;28;19916;-76
2021/11/22 06:14:25;;;;;;;;;;;3.20;99.90;;;;;;5071607;28;19919;-76
2021/11/22 06:16:51;;;;;;;;;;;3.20;99.90;;;;;;5071215;28;20345;-76
2021/11/22 06:19:16;;;;;;;;;;;3.20;99.90;;;;;;5065436;28;19920;-75
2021/11/22 06:21:42;;;;;;;;;;;3.20;99.90;;;;;;5051793;28;20007;-76
2021/11/22 06:24:07;;;;;;;;;;;3.10;99.90;;;;;;5058596;28;19913;-76
2021/11/22 06:26:33;;;;;;;;;;;3.00;99.90;;;;;;5058125;28;19909;-76
2021/11/22 06:28:59;;;;;;;;;;;2.90;99.90;;;;;;5052080;28;19952;-76
2021/11/22 06:31:25;;;;;;;;;;;3.00;99.90;;;;;;5050452;28;20446;-75
2021/11/22 06:33:50;;;;;;;;;;;3.10;99.90;;;;;;5051922;28;19963;-76
2021/11/22 06:36:16;;;;;;;;;;;3.10;99.90;;;;;;5052113;28;20004;-77
2021/11/22 06:38:41;;;;;;;;;;;3.10;99.90;;;;;;5051888;28;19909;-76
2021/11/22 06:41:07;;;;;;;;;;;3.20;99.90;;;;;;5051290;28;19909;-76
2021/11/22 06:43:32;;;;;;;;;;;3.20;99.90;;;;;;5051781;28;19916;-77
2021/11/22 06:45:58;;;;;;;;;;;3.20;99.90;;;;;;5052419;28;19913;-77
2021/11/22 06:48:24;;;;;;;;;;;3.20;99.90;;;;;;5052041;28;20038;-77
2021/11/22 06:50:49;;;;;;;;;;;3.20;99.90;;;;;;5051357;28;20281;-77
2021/11/22 06:53:15;;;;;;;;;;;3.20;99.90;;;;;;5052417;28;19912;-76
2021/11/22 06:55:41;;;;;;;;;;;3.30;99.90;;;;;;5060350;28;20362;-77
2021/11/22 06:58:06;;;;;;;;;;;3.20;99.90;;;;;;5051882;28;19909;-76
2021/11/22 07:00:32;;;;;;;;;;;3.20;99.90;;;;;;5051246;28;19982;-77
2021/11/22 07:02:58;;;;;;;;;;;3.20;99.90;;;;;;5050575;28;19915;-77
2021/11/22 07:05:25;;;;;;;;;;;3.20;99.90;;;;;;5051914;28;20280;-77
2021/11/22 07:07:51;;;;;;;;;;;3.10;99.90;;;;;;5051695;28;19909;-77
2021/11/22 07:10:17;;;;;;;;;;;3.10;99.90;;;;;;5051246;28;19966;-76
2021/11/22 07:12:43;;;;;;;;;;;3.20;99.90;;;;;;5051612;28;20350;-77
2021/11/22 07:15:09;;;;;;;;;;;3.20;99.90;;;;;;5055495;28;19947;-76
2021/11/22 07:17:35;;;;;;;;;;;3.30;99.90;;;;;;5057339;28;20365;-77
2021/11/22 07:20:00;;;;;;;;;;;3.30;99.90;;;;;;5054966;28;19919;-76
2021/11/22 07:22:26;;;;;;;;;;;3.40;99.90;;;;;;5055105;28;20368;-76
2021/11/22 07:24:52;;;;;;;;;;;3.40;99.90;;;;;;5067754;28;19987;-76
2021/11/22 07:27:23;;;;;;;;;;;3.40;99.90;;;;;;5059357;28;19908;-76
2021/11/22 07:29:49;;;;;;;;;;;3.40;99.90;;;;;;5067516;28;19909;-76
2021/11/22 07:32:15;;;;;;;;;;;3.40;99.90;;;;;;5074210;28;19909;-76
2021/11/22 07:34:40;;;;;;;;;;;3.40;99.90;;;;;;5067171;28;19922;-75
2021/11/22 07:37:06;;;;;;;;;;;3.40;99.90;;;;;;5059751;28;20269;-77
2021/11/22 07:39:32;;;;;;;;;;;3.50;99.90;;;;;;5065946;28;20012;-77
2021/11/22 07:41:57;;;;;;;;;;;3.50;99.90;;;;;;5057318;28;20338;-76
2021/11/22 07:44:25;;;;;;;;;;;3.50;99.90;;;;;;5054220;28;19913;-76
2021/11/22 07:46:52;;;;;;;;;;;3.50;99.90;;;;;;5056579;28;19917;-76
2021/11/22 07:49:17;;;;;;;;;;;3.40;99.90;;;;;;5061934;28;19915;-76
2021/11/22 07:51:43;;;;;;;;;;;3.40;99.90;;;;;;5058267;28;19908;-76
2021/11/22 07:54:08;;;;;;;;;;;3.50;99.90;;;;;;5063314;28;20026;-77
2021/11/22 07:56:34;;;;;;;;;;;3.50;99.90;;;;;;5060786;28;19908;-77
2021/11/22 07:58:59;;;;;;;;;;;3.60;99.90;;;;;;5054157;28;20014;-77
2021/11/22 08:01:25;;;;;;;;;;;3.60;99.90;;;;;;5052637;28;19908;-76
2021/11/22 08:03:50;;;;;;;;;;;3.60;99.90;;;;;;5054969;28;19959;-76
2021/11/22 08:06:17;;;;;;;;;;;3.60;99.90;;;;;;5065197;28;20004;-77
2021/11/22 08:08:42;;;;;;;;;;;3.70;99.90;;;;;;5060002;28;19962;-76
2021/11/22 08:13:40;;;;;;;;;;;3.60;99.90;;;;;;5052915;28;20270;-76
2021/11/22 08:16:07;;;;;;;;;;;3.70;99.90;;;;;;5052452;28;19909;-75
2021/11/22 08:18:33;;;;;;;;;;;3.70;99.90;;;;;;5052862;28;19915;-77
2021/11/22 08:20:59;;;;;;;;;;;3.70;99.90;;;;;;5052422;28;19909;-77
2021/11/22 08:23:24;;;;;;;;;;;3.70;99.90;;;;;;5056098;28;19935;-77
2021/11/22 08:25:50;;;;;;;;;;;3.80;99.90;;;;;;5060051;28;19939;-76
2021/11/22 08:28:16;;;;;;;;;;;3.80;99.90;;;;;;5055828;28;19913;-76
2021/11/22 08:30:42;;;;;;;;;;;3.80;99.90;;;;;;5060109;28;20333;-76
2021/11/22 08:33:09;;;;;;;;;;;3.90;99.90;;;;;;5062820;28;19960;-77
2021/11/22 08:35:34;;;;;;;;;;;4.00;99.90;;;;;;5057654;28;19909;-76
2021/11/22 08:38:00;;;;;;;;;;;4.00;99.90;;;;;;5050981;28;19916;-75
2021/11/22 08:40:25;;;;;;;;;;;4.10;99.90;;;;;;5057784;28;20753;-76
2021/11/22 08:42:52;;;;;;;;;;;4.10;99.90;;;;;;5062001;28;20281;-77
2021/11/22 08:45:18;;;;;;;;;;;4.10;99.90;;;;;;5072348;28;20288;-77
2021/11/22 08:47:43;;;;;;;;;;;4.10;99.90;;;;;;5063578;28;19909;-77
2021/11/22 08:50:09;;;;;;;;;;;4.20;99.90;;;;;;5060899;28;20472;-76
2021/11/22 08:52:35;;;;;;;;;;;4.20;99.90;;;;;;5058938;28;20293;-76
2021/11/22 08:55:00;;;;;;;;;;;4.20;99.90;;;;;;5053477;28;20309;-80
2021/11/22 08:57:26;;;;;;;;;;;4.20;99.90;;;;;;5053390;28;20018;-76
2021/11/22 08:59:51;;;;;;;;;;;4.20;99.90;;;;;;5053574;28;19916;-76
2021/11/22 09:02:21;;;;;;;;;;;4.20;99.90;;;;;;5062147;28;19916;-76
2021/11/22 09:04:47;;;;;;;;;;;4.30;99.90;;;;;;5057678;28;20379;-78
2021/11/22 09:07:13;;;;;;;;;;;4.20;99.90;;;;;;5064715;28;20369;-76
2021/11/22 09:09:38;;;;;;;;;;;4.20;99.90;;;;;;5063263;28;19967;-77
2021/11/22 09:12:04;;;;;;;;;;;4.20;99.90;;;;;;5055233;28;19909;-75
2021/11/22 09:14:30;;;;;;;;;;;4.30;99.90;;;;;;5064264;28;19967;-76
2021/11/22 09:16:55;;;;;;;;;;;4.30;99.90;;;;;;5060123;28;19954;-76
2021/11/22 09:19:21;;;;;;;;;;;4.30;99.90;;;;;;5053687;28;20339;-79
2021/11/22 09:21:46;;;;;;;;;;;4.30;99.90;;;;;;5058019;28;19927;-75
2021/11/22 09:24:12;;;;;;;;;;;4.30;99.90;;;;;;5060822;28;19909;-76
2021/11/22 09:26:37;;;;;;;;;;;4.40;99.90;;;;;;5054025;28;19964;-77
2021/11/22 09:29:04;;;;;;;;;;;4.40;99.90;;;;;;5053357;28;19909;-75
2021/11/22 09:31:29;;;;;;;;;;;4.40;99.90;;;;;;5066094;28;19908;-76
2021/11/22 09:33:55;;;;;;;;;;;4.50;99.90;;;;;;5071825;28;20280;-75
2021/11/22 09:36:21;;;;;;;;;;;4.50;99.90;;;;;;5071493;28;19920;-75
2021/11/22 09:38:47;;;;;;;;;;;4.50;99.90;;;;;;5066077;28;19909;-75
2021/11/22 09:41:13;;;;;;;;;;;4.50;99.90;;;;;;5066847;28;20043;-75
2021/11/22 09:43:42;;;;;;;;;;;4.50;99.90;;;;;;5071473;28;20068;-75
2021/11/22 09:46:08;;;;;;;;;;;4.50;99.90;;;;;;5065307;28;19908;-75
2021/11/22 09:48:33;;;;;;;;;;;4.50;99.90;;;;;;5063065;28;19916;-78
2021/11/22 09:50:59;;;;;;;;;;;4.50;99.90;;;;;;5066307;28;19913;-75
2021/11/22 09:53:25;;;;;;;;;;;4.50;99.90;;;;;;5052074;28;20019;-75
2021/11/22 09:55:50;;;;;;;;;;;4.50;99.90;;;;;;5064713;28;19915;-76
2021/11/22 09:58:16;;;;;;;;;;;4.50;99.90;;;;;;5064712;28;19916;-79
2021/11/22 10:00:44;;;;;;;;;;;4.50;99.90;;;;;;5062491;28;19909;-75
2021/11/22 10:03:10;;;;;;;;;;;4.60;99.90;;;;;;5058070;28;20007;-75
2021/11/22 10:05:36;;;;;;;;;;;4.60;99.90;;;;;;5062861;28;19909;-75
2021/11/22 10:08:04;;;;;;;;;;;4.60;99.90;;;;;;5052003;28;19909;-75
2021/11/22 10:10:31;;;;;;;;;;;4.70;99.90;;;;;;5057535;28;19920;-79
2021/11/22 10:13:00;;;;;;;;;;;4.70;99.90;;;;;;5056052;28;20303;-76
2021/11/22 10:15:29;;;;;;;;;;;4.70;99.90;;;;;;5060599;28;20019;-75
2021/11/22 10:17:55;;;;;;;;;;;4.80;99.90;;;;;;5053817;28;19935;-75
2021/11/22 10:20:21;;;;;;;;;;;4.90;99.90;;;;;;5070585;28;19916;-78
2021/11/22 10:22:51;;;;;;;;;;;4.90;99.90;;;;;;5070999;28;20277;-80
2021/11/22 10:25:19;;;;;;;;;;;4.90;99.90;;;;;;5070908;28;19938;-76
2021/11/22 10:27:44;;;;;;;;;;;4.90;99.90;;;;;;5055993;28;19908;-75
2021/11/22 10:30:21;;;;;;;;;;;4.80;99.90;;;;;;5053209;28;19909;-75
2021/11/22 10:32:48;;;;;;;;;;;4.80;99.90;;;;;;5070713;28;19909;-77
2021/11/22 10:35:14;;;;;;;;;;;4.80;99.90;;;;;;5061491;28;20293;-76
2021/11/22 10:37:53;;;;;;;;;;;4.80;99.90;;;;;;5051746;28;20000;-75
2021/11/22 10:40:19;;;;;;;;;;;4.80;99.90;;;;;;5066638;28;19909;-78
2021/11/22 10:42:44;;;;;;;;;;;4.70;99.90;;;;;;5053604;28;20008;-75
2021/11/22 10:45:20;;;;;;;;;;;4.80;99.90;;;;;;5051479;28;20133;-76
2021/11/22 10:47:53;;;;;;;;;;;4.80;99.90;;;;;;5059507;28;19908;-75
2021/11/22 10:50:24;;;;;;;;;;;4.80;99.90;;;;;;5063254;28;20358;-75
2021/11/22 10:52:50;;;;;;;;;;;4.80;99.90;;;;;;5051469;28;20366;-76
2021/11/22 10:55:15;;;;;;;;;;;4.80;99.90;;;;;;5070635;28;19909;-77
2021/11/22 10:57:42;;;;;;;;;;;4.80;99.90;;;;;;5070725;28;20058;-75
2021/11/22 11:00:28;;;;;;;;;;;4.80;99.90;;;;;;5069430;28;19944;-75
2021/11/22 11:02:55;;;;;;;;;;;4.80;99.90;;;;;;5064137;28;20373;-78
2021/11/22 11:05:26;;;;;;;;;;;4.90;99.90;;;;;;5054824;28;19912;-75
2021/11/22 11:08:02;;;;;;;;;;;4.90;99.90;;;;;;5059505;28;19909;-75
2021/11/22 11:10:27;;;;;;;;;;;4.90;99.90;;;;;;5060751;28;19917;-75
2021/11/22 11:12:55;;;;;;;;;;;4.90;99.90;;;;;;5060747;28;19916;-75
2021/11/22 11:15:21;;;;;;;;;;;5.00;99.90;;;;;;5070126;28;19969;-76
2021/11/22 11:17:47;;;;;;;;;;;5.00;99.90;;;;;;5070442;28;19919;-75
2021/11/22 11:20:14;;;;;;;;;;;4.90;99.90;;;;;;5054358;28;19912;-77
2021/11/22 11:22:40;;;;;;;;;;;5.00;99.90;;;;;;5051079;28;19973;-79
2021/11/22 11:25:06;;;;;;;;;;;5.00;99.90;;;;;;5050730;28;20305;-75
2021/11/22 11:27:32;;;;;;;;;;;5.00;99.90;;;;;;5051051;28;19913;-75
2021/11/22 11:29:58;;;;;;;;;;;5.00;99.90;;;;;;5050754;28;20653;-75
2021/11/22 11:32:25;;;;;;;;;;;5.10;99.90;;;;;;5052916;28;19908;-75
2021/11/22 11:34:51;;;;;;;;;;;5.10;99.90;;;;;;5068317;28;19912;-78
2021/11/22 11:37:24;;;;;;;;;;;5.20;99.90;;;;;;5050923;28;19916;-75
2021/11/22 11:39:56;;;;;;;;;;;5.10;99.90;;;;;;5052913;28;19959;-77
2021/11/22 11:42:47;;;;;;;;;;;5.10;99.90;;;;;;5058655;28;19913;-76
2021/11/22 11:45:16;;;;;;;;;;;5.10;99.90;;;;;;5057076;28;20035;-76
2021/11/22 11:47:44;;;;;;;;;;;5.10;99.90;;;;;;5055570;28;20399;-75
2021/11/22 11:50:31;;;;;;;;;;;5.10;99.90;;;;;;5050520;28;20338;-75
2021/11/22 11:53:07;;;;;;;;;;;5.20;99.90;;;;;;5059381;28;19913;-77
2021/11/22 11:55:33;;;;;;;;;;;5.40;99.90;;;;;;5063019;28;19981;-79
2021/11/22 11:58:17;;;;;;;;;;;5.30;99.90;;;;;;5057813;28;19948;-78
2021/11/22 12:01:03;;;;;;;;;;;5.10;99.90;;;;;;5052225;28;19916;-79
2021/11/22 12:03:30;;;;;;;;;;;5.00;99.90;;;;;;5054065;28;19908;-75
2021/11/22 12:05:56;;;;;;;;;;;5.00;99.90;;;;;;5070802;28;19908;-76
2021/11/22 12:08:22;;;;;;;;;;;5.00;99.90;;;;;;5062518;28;20236;-76
2021/11/22 12:10:47;;;;;;;;;;;5.00;99.90;;;;;;5059779;28;19916;-78
2021/11/22 12:13:15;;;;;;;;;;;5.00;99.90;;;;;;5055019;28;20323;-77
2021/11/22 12:15:41;;;;;;;;;;;5.00;99.90;;;;;;5057712;28;19915;-75
2021/11/22 12:18:07;;;;;;;;;;;5.00;99.90;;;;;;5060804;28;19908;-75
2021/11/22 12:20:36;;;;;;;;;;;4.90;99.90;;;;;;5058420;28;19920;-75
2021/11/22 12:23:06;;;;;;;;;;;4.90;99.90;;;;;;5067912;28;19920;-75
2021/11/22 12:25:44;;;;;;;;;;;4.90;99.90;;;;;;5070580;28;19920;-79
2021/11/22 12:28:35;;;;;;;;;;;4.80;99.90;;;;;;5056494;28;19912;-75
2021/11/22 12:31:04;;;;;;;;;;;4.80;99.90;;;;;;5063374;28;20250;-75
2021/11/22 12:33:32;;;;;;;;;;;4.80;99.90;;;;;;5052652;28;19913;-75
2021/11/22 12:36:00;;;;;;;;;;;4.80;99.90;;;;;;5058146;28;20383;-79
2021/11/22 12:38:26;;;;;;;;;;;4.70;99.90;;;;;;5062434;28;19908;-75
2021/11/22 12:40:54;;;;;;;;;;;4.80;99.90;;;;;;5064420;28;19962;-77
2021/11/22 12:43:39;;;;;;;;;;;4.80;99.90;;;;;;5062432;28;19954;-75
2021/11/22 12:46:05;;;;;;;;;;;4.70;99.90;;;;;;5056956;28;20378;-75
2021/11/22 12:48:32;;;;;;;;;;;4.70;99.90;;;;;;5061440;28;19913;-75
2021/11/22 12:50:58;;;;;;;;;;;4.70;99.90;;;;;;5063172;28;19916;-75
2021/11/22 12:53:24;;;;;;;;;;;4.60;99.90;;;;;;5059609;28;20185;-75
2021/11/22 12:55:50;;;;;;;;;;;4.70;99.90;;;;;;5059628;28;20384;-75
2021/11/22 12:58:20;;;;;;;;;;;4.70;99.90;;;;;;5067025;28;19935;-75
2021/11/22 13:00:46;;;;;;;;;;;4.60;99.90;;;;;;5058418;28;19908;-75
2021/11/22 13:03:13;;;;;;;;;;;4.60;99.90;;;;;;5050588;28;19913;-75
2021/11/22 13:05:45;;;;;;;;;;;4.60;99.90;;;;;;5071002;28;19912;-79
2021/11/22 13:08:16;;;;;;;;;;;4.60;99.90;;;;;;5056508;28;19908;-75
2021/11/22 13:10:43;;;;;;;;;;;4.60;99.90;;;;;;5065797;28;19916;-75
2021/11/22 13:13:14;;;;;;;;;;;4.50;99.90;;;;;;5064419;28;19959;-75
2021/11/22 13:15:59;;;;;;;;;;;4.60;99.90;;;;;;5062429;28;19913;-75
2021/11/22 13:18:25;;;;;;;;;;;4.60;99.90;;;;;;5052793;28;19920;-78
2021/11/22 13:20:51;;;;;;;;;;;4.50;99.90;;;;;;5052884;28;19912;-75
2021/11/22 13:23:18;;;;;;;;;;;4.60;99.90;;;;;;5055722;28;19909;-77
2021/11/22 13:25:45;;;;;;;;;;;4.50;99.90;;;;;;5052375;28;19909;-75
2021/11/22 13:28:12;;;;;;;;;;;4.50;99.90;;;;;;5051648;28;19913;-75
2021/11/22 13:30:39;;;;;;;;;;;4.50;99.90;;;;;;5068419;28;20314;-75
2021/11/22 13:33:05;;;;;;;;;;;4.50;99.90;;;;;;5059226;28;20267;-78
2021/11/22 13:35:30;;;;;;;;;;;4.50;99.90;;;;;;5060682;28;19915;-75
2021/11/22 13:38:07;;;;;;;;;;;4.50;99.90;;;;;;5053958;28;19909;-75
2021/11/22 13:40:32;;;;;;;;;;;4.50;99.90;;;;;;5063881;28;19909;-75
2021/11/22 13:43:02;;;;;;;;;;;4.50;99.90;;;;;;5054603;28;19909;-77
2021/11/22 13:45:28;;;;;;;;;;;4.50;99.90;;;;;;5070318;28;19909;-77
2021/11/22 13:47:53;;;;;;;;;;;4.50;99.90;;;;;;5066477;28;20423;-75
2021/11/22 13:50:19;;;;;;;;;;;4.50;99.90;;;;;;5065102;28;19908;-75
2021/11/22 13:52:44;;;;;;;;;;;4.50;99.90;;;;;;5052217;28;19909;-75
2021/11/22 13:55:10;;;;;;;;;;;4.60;99.90;;;;;;5057626;28;20002;-78
2021/11/22 13:57:35;;;;;;;;;;;4.50;99.90;;;;;;5054971;28;20015;-73
2021/11/22 14:00:01;;;;;;;;;;;4.50;99.90;;;;;;5054964;28;19999;-74
2021/11/22 14:02:27;;;;;;;;;;;4.50;99.90;;;;;;5063961;28;20399;-76
2021/11/22 14:04:57;;;;;;;;;;;4.50;99.90;;;;;;5052800;28;19909;-74
2021/11/22 14:07:40;;;;;;;;;;;4.50;99.90;;;;;;5058093;28;20354;-76
2021/11/22 14:10:06;;;;;;;;;;;4.50;99.90;;;;;;5057466;28;19955;-74
2021/11/22 14:12:34;;;;;;;;;;;4.50;99.90;;;;;;5067367;28;20054;-75
2021/11/22 14:15:00;;;;;;;;;;;4.50;99.90;;;;;;5050800;28;19935;-75
2021/11/22 14:17:25;;;;;;;;;;;4.50;99.90;;;;;;5051032;28;20386;-74
2021/11/22 14:20:05;;;;;;;;;;;4.50;99.90;;;;;;5069385;28;19919;-74
2021/11/22 14:22:37;;;;;;;;;;;4.50;99.90;;;;;;5063539;28;20171;-73
2021/11/22 14:25:03;;;;;;;;;;;4.50;99.90;;;;;;5056390;28;20444;-76
2021/11/22 14:27:29;;;;;;;;;;;4.50;99.90;;;;;;5067024;28;19995;-74
2021/11/22 14:30:01;;;;;;;;;;;4.50;99.90;;;;;;5062088;28;19908;-77
2021/11/22 14:32:37;;;;;;;;;;;4.50;99.90;;;;;;5053268;28;20004;-73